sensor_id;sensor_type;location;lat;lon;timestamp;pressure;altitude;pressure_sealevel;temperature;humidity
11198;BME280;5655;48.744;9.162;2023-05-10T00:01:37;95665.91;;;15.06;100.00
11198;BME280;5655;48.744;9.162;2023-05-10T00:04:02;95689.47;;;14.75;100.00
11198;BME280;5655;48.744;9.162;2023-05-10T00:06:27;95676.22;;;14.88;100.00
11198;BME280;5655;48.744;9.162;2023-05-10T00:08:53;95687.16;;;14.74;100.00
11198;BME280;5655;48.744;9.162;2023-05-10T00:11:18;95700.31;;;14.68;100.00
11198;BME280;5655;48.744;9.162;2023-05-10T00:13:43;95696.91;;;14.64;100.00
11198;BME280;5655;48.744;9.162;2023-05-10T00:16:08;95690.97;;;14.76;100.00
11198;BME280;5655;48.744;9.162;2023-05-10T00:18:34;95700.47;;;14.58;100.00
11198;BME280;5655;48.744;9.162;2023-05-10T00:20:59;95697.47;;;14.52;100.00
11198;BME280;5655;48.744;9.162;2023-05-10T00:23:25;95704.00;;;14.51;100.00
11198;BME280;5655;48.744;9.162;2023-05-10T00:25:50;95702.84;;;14.52;100.00
11198;BME280;5655;48.744;9.162;2023-05-10T00:28:15;95699.16;;;14.39;100.00
11198;BME280;5655;48.744;9.162;2023-05-10T00:30:41;95684.44;;;14.47;100.00
11198;BME280;5655;48.744;9.162;2023-05-10T00:33:06;95687.78;;;14.21;100.00
11198;BME280;5655;48.744;9.162;2023-05-10T00:35:32;95679.72;;;14.21;100.00
11198;BME280;5655;48.744;9.162;2023-05-10T00:37:57;95674.53;;;14.03;100.00
11198;BME280;5655;48.744;9.162;2023-05-10T00:40:22;95674.97;;;14.01;100.00
11198;BME280;5655;48.744;9.162;2023-05-10T00:42:48;95670.94;;;14.17;100.00
11198;BME280;5655;48.744;9.162;2023-05-10T00:45:13;95672.19;;;14.08;100.00
11198;BME280;5655;48.744;9.162;2023-05-10T00:47:39;95680.78;;;14.30;100.00
11198;BME280;5655;48.744;9.162;2023-05-10T00:50:05;95674.88;;;14.08;100.00
11198;BME280;5655;48.744;9.162;2023-05-10T00:52:31;95684.91;;;14.04;100.00
11198;BME280;5655;48.744;9.162;2023-05-10T00:54:56;95682.78;;;13.85;100.00
11198;BME280;5655;48.744;9.162;2023-05-10T00:57:22;95685.00;;;13.97;100.00
11198;BME280;5655;48.744;9.162;2023-05-10T00:59:48;95685.44;;;13.92;100.00
11198;BME280;5655;48.744;9.162;2023-05-10T01:02:13;95682.78;;;13.85;100.00
11198;BME280;5655;48.744;9.162;2023-05-10T01:04:39;95682.00;;;13.88;100.00
11198;BME280;5655;48.744;9.162;2023-05-10T01:07:04;95690.66;;;13.69;100.00
11198;BME280;5655;48.744;9.162;2023-05-10T01:12:51;95700.75;;;13.58;100.00
11198;BME280;5655;48.744;9.162;2023-05-10T01:15:17;95706.84;;;13.62;100.00
11198;BME280;5655;48.744;9.162;2023-05-10T01:17:44;95705.50;;;13.81;100.00
11198;BME280;5655;48.744;9.162;2023-05-10T01:20:11;95705.38;;;13.54;100.00
11198;BME280;5655;48.744;9.162;2023-05-10T01:25:22;95709.00;;;13.78;100.00
11198;BME280;5655;48.744;9.162;2023-05-10T01:34:13;95732.19;;;14.05;100.00
11198;BME280;5655;48.744;9.162;2023-05-10T01:36:46;95729.75;;;13.77;100.00
11198;BME280;5655;48.744;9.162;2023-05-10T01:44:46;95704.09;;;14.10;100.00
11198;BME280;5655;48.744;9.162;2023-05-10T01:47:43;95716.09;;;13.98;100.00
11198;BME280;5655;48.744;9.162;2023-05-10T01:50:16;95719.63;;;13.92;100.00
11198;BME280;5655;48.744;9.162;2023-05-10T01:52:45;95719.88;;;13.67;100.00
11198;BME280;5655;48.744;9.162;2023-05-10T01:55:15;95725.94;;;13.75;100.00
11198;BME280;5655;48.744;9.162;2023-05-10T01:57:43;95725.91;;;13.78;100.00
11198;BME280;5655;48.744;9.162;2023-05-10T02:00:10;95723.13;;;13.89;100.00
11198;BME280;5655;48.744;9.162;2023-05-10T02:02:38;95718.22;;;13.80;100.00
11198;BME280;5655;48.744;9.162;2023-05-10T02:05:08;95716.97;;;14.26;100.00
11198;BME280;5655;48.744;9.162;2023-05-10T02:07:35;95712.75;;;13.87;100.00
11198;BME280;5655;48.744;9.162;2023-05-10T02:10:05;95717.72;;;13.92;100.00
11198;BME280;5655;48.744;9.162;2023-05-10T02:12:35;95714.59;;;13.97;100.00
11198;BME280;5655;48.744;9.162;2023-05-10T02:15:03;95711.78;;;13.71;100.00
11198;BME280;5655;48.744;9.162;2023-05-10T02:17:30;95714.22;;;13.95;100.00
11198;BME280;5655;48.744;9.162;2023-05-10T02:19:58;95698.66;;;14.14;100.00
11198;BME280;5655;48.744;9.162;2023-05-10T02:22:25;95696.41;;;14.08;100.00
11198;BME280;5655;48.744;9.162;2023-05-10T02:24:51;95693.41;;;13.99;100.00
11198;BME280;5655;48.744;9.162;2023-05-10T02:27:19;95707.81;;;13.82;100.00
11198;BME280;5655;48.744;9.162;2023-05-10T02:29:45;95706.28;;;14.19;100.00
11198;BME280;5655;48.744;9.162;2023-05-10T02:32:12;95704.00;;;14.17;100.00
11198;BME280;5655;48.744;9.162;2023-05-10T02:34:38;95704.25;;;13.92;100.00
11198;BME280;5655;48.744;9.162;2023-05-10T02:37:04;95708.19;;;13.84;100.00
11198;BME280;5655;48.744;9.162;2023-05-10T02:39:31;95717.19;;;13.63;100.00
11198;BME280;5655;48.744;9.162;2023-05-10T02:41:57;95728.91;;;13.87;100.00
11198;BME280;5655;48.744;9.162;2023-05-10T02:44:24;95725.78;;;13.92;100.00
11198;BME280;5655;48.744;9.162;2023-05-10T02:46:52;95714.34;;;13.81;100.00
11198;BME280;5655;48.744;9.162;2023-05-10T02:49:18;95715.06;;;13.85;100.00
11198;BME280;5655;48.744;9.162;2023-05-10T02:51:48;95721.81;;;14.04;100.00
11198;BME280;5655;48.744;9.162;2023-05-10T02:54:18;95721.81;;;14.04;100.00
11198;BME280;5655;48.744;9.162;2023-05-10T02:56:51;95707.84;;;14.16;100.00
11198;BME280;5655;48.744;9.162;2023-05-10T02:59:18;95720.53;;;13.78;100.00
11198;BME280;5655;48.744;9.162;2023-05-10T03:01:44;95712.97;;;13.66;100.00
11198;BME280;5655;48.744;9.162;2023-05-10T03:04:10;95720.72;;;13.57;100.00
11198;BME280;5655;48.744;9.162;2023-05-10T03:06:35;95716.25;;;13.84;100.00
11198;BME280;5655;48.744;9.162;2023-05-10T03:09:01;95724.13;;;14.05;100.00
11198;BME280;5655;48.744;9.162;2023-05-10T03:11:49;95722.16;;;14.09;100.00
11198;BME280;5655;48.744;9.162;2023-05-10T03:14:43;95728.69;;;14.08;100.00
11198;BME280;5655;48.744;9.162;2023-05-10T03:17:22;95723.69;;;14.07;100.00
11198;BME280;5655;48.744;9.162;2023-05-10T03:20:03;95710.94;;;14.15;100.00
11198;BME280;5655;48.744;9.162;2023-05-10T03:22:38;95724.63;;;13.93;100.00
11198;BME280;5655;48.744;9.162;2023-05-10T03:25:06;95722.09;;;13.72;100.00
11198;BME280;5655;48.744;9.162;2023-05-10T03:27:35;95729.13;;;14.03;100.00
11198;BME280;5655;48.744;9.162;2023-05-10T03:30:02;95716.19;;;13.91;100.00
11198;BME280;5655;48.744;9.162;2023-05-10T03:32:29;95718.66;;;14.13;100.00
11198;BME280;5655;48.744;9.162;2023-05-10T03:34:55;95717.06;;;14.19;100.00
11198;BME280;5655;48.744;9.162;2023-05-10T03:37:20;95708.59;;;14.17;100.00
11198;BME280;5655;48.744;9.162;2023-05-10T03:39:45;95714.50;;;14.04;100.00
11198;BME280;5655;48.744;9.162;2023-05-10T03:42:11;95703.22;;;14.17;100.00
11198;BME280;5655;48.744;9.162;2023-05-10T03:44:38;95706.69;;;14.17;100.00
11198;BME280;5655;48.744;9.162;2023-05-10T03:47:03;95702.50;;;14.13;100.00
11198;BME280;5655;48.744;9.162;2023-05-10T03:49:29;95696.31;;;14.16;100.00
11198;BME280;5655;48.744;9.162;2023-05-10T03:51:54;95699.28;;;14.25;100.00
11198;BME280;5655;48.744;9.162;2023-05-10T03:54:19;95706.94;;;14.30;100.00
11198;BME280;5655;48.744;9.162;2023-05-10T03:56:45;95713.00;;;14.41;100.00
11198;BME280;5655;48.744;9.162;2023-05-10T03:59:13;95710.88;;;14.22;100.00
11198;BME280;5655;48.744;9.162;2023-05-10T04:01:38;95721.00;;;14.11;100.00
11198;BME280;5655;48.744;9.162;2023-05-10T04:04:03;95726.13;;;13.94;100.00
11198;BME280;5655;48.744;9.162;2023-05-10T04:06:29;95728.59;;;13.78;100.00
11198;BME280;5655;48.744;9.162;2023-05-10T04:08:54;95729.97;;;13.97;100.00
11198;BME280;5655;48.744;9.162;2023-05-10T04:11:20;95731.31;;;13.75;100.00
11198;BME280;5655;48.744;9.162;2023-05-10T04:13:47;95728.81;;;13.94;100.00
11198;BME280;5655;48.744;9.162;2023-05-10T04:16:12;95732.84;;;13.76;100.00
11198;BME280;5655;48.744;9.162;2023-05-10T04:18:37;95734.34;;;13.80;100.00
11198;BME280;5655;48.744;9.162;2023-05-10T04:21:03;95743.41;;;13.97;100.00
11198;BME280;5655;48.744;9.162;2023-05-10T04:23:28;95735.47;;;13.83;100.00
11198;BME280;5655;48.744;9.162;2023-05-10T04:25:59;95743.78;;;13.99;100.00
11198;BME280;5655;48.744;9.162;2023-05-10T04:28:25;95743.63;;;13.72;100.00
11198;BME280;5655;48.744;9.162;2023-05-10T04:30:50;95747.50;;;13.71;100.00
11198;BME280;5655;48.744;9.162;2023-05-10T04:33:16;95738.75;;;13.60;100.00
11198;BME280;5655;48.744;9.162;2023-05-10T04:35:41;95745.91;;;13.77;100.00
11198;BME280;5655;48.744;9.162;2023-05-10T04:38:06;95741.25;;;13.81;100.00
11198;BME280;5655;48.744;9.162;2023-05-10T04:40:32;95743.59;;;13.79;100.00
11198;BME280;5655;48.744;9.162;2023-05-10T04:42:57;95756.78;;;13.59;100.00
11198;BME280;5655;48.744;9.162;2023-05-10T04:45:22;95754.38;;;13.72;100.00
11198;BME280;5655;48.744;9.162;2023-05-10T04:47:47;95753.19;;;13.77;100.00
11198;BME280;5655;48.744;9.162;2023-05-10T04:50:13;95760.91;;;13.75;100.00
11198;BME280;5655;48.744;9.162;2023-05-10T04:52:38;95758.19;;;13.78;100.00
11198;BME280;5655;48.744;9.162;2023-05-10T04:55:04;95751.88;;;13.95;100.00
11198;BME280;5655;48.744;9.162;2023-05-10T04:57:29;95735.47;;;14.24;100.00
11198;BME280;5655;48.744;9.162;2023-05-10T04:59:54;95743.50;;;13.86;100.00
11198;BME280;5655;48.744;9.162;2023-05-10T05:02:20;95748.03;;;13.96;100.00
11198;BME280;5655;48.744;9.162;2023-05-10T05:04:45;95743.34;;;14.04;100.00
11198;BME280;5655;48.744;9.162;2023-05-10T05:07:11;95737.88;;;14.15;100.00
11198;BME280;5655;48.744;9.162;2023-05-10T05:09:36;95746.41;;;14.02;100.00
11198;BME280;5655;48.744;9.162;2023-05-10T05:12:02;95744.19;;;13.94;100.00
11198;BME280;5655;48.744;9.162;2023-05-10T05:14:27;95746.38;;;14.09;100.00
11198;BME280;5655;48.744;9.162;2023-05-10T05:16:52;95738.84;;;14.31;100.00
11198;BME280;5655;48.744;9.162;2023-05-10T05:19:18;95751.06;;;14.02;100.00
11198;BME280;5655;48.744;9.162;2023-05-10T05:21:43;95751.63;;;14.24;100.00
11198;BME280;5655;48.744;9.162;2023-05-10T05:24:09;95750.44;;;14.25;100.00
11198;BME280;5655;48.744;9.162;2023-05-10T05:26:35;95747.72;;;14.25;100.00
11198;BME280;5655;48.744;9.162;2023-05-10T05:29:00;95740.25;;;14.43;100.00
11198;BME280;5655;48.744;9.162;2023-05-10T05:31:26;95740.44;;;14.59;100.00
11198;BME280;5655;48.744;9.162;2023-05-10T05:33:51;95732.13;;;14.46;100.00
11198;BME280;5655;48.744;9.162;2023-05-10T05:36:17;95745.34;;;14.34;100.00
11198;BME280;5655;48.744;9.162;2023-05-10T05:38:42;95755.38;;;14.30;100.00
11198;BME280;5655;48.744;9.162;2023-05-10T05:41:08;95732.91;;;14.47;100.00
11198;BME280;5655;48.744;9.162;2023-05-10T05:43:33;95747.53;;;14.46;100.00
11198;BME280;5655;48.744;9.162;2023-05-10T05:45:59;95744.91;;;14.73;100.00
11198;BME280;5655;48.744;9.162;2023-05-10T05:48:24;95741.25;;;14.56;100.00
11198;BME280;5655;48.744;9.162;2023-05-10T05:50:50;95750.59;;;14.48;100.00
11198;BME280;5655;48.744;9.162;2023-05-10T05:53:15;95749.28;;;14.60;100.00
11198;BME280;5655;48.744;9.162;2023-05-10T05:55:50;95765.19;;;14.81;100.00
11198;BME280;5655;48.744;9.162;2023-05-10T05:58:16;95761.50;;;14.34;100.00
11198;BME280;5655;48.744;9.162;2023-05-10T06:00:41;95753.19;;;14.55;100.00
11198;BME280;5655;48.744;9.162;2023-05-10T06:03:06;95766.03;;;14.44;100.00
11198;BME280;5655;48.744;9.162;2023-05-10T06:05:32;95764.34;;;14.57;100.00
11198;BME280;5655;48.744;9.162;2023-05-10T06:07:59;95763.91;;;14.62;100.00
11198;BME280;5655;48.744;9.162;2023-05-10T06:10:25;95755.16;;;14.51;100.00
11198;BME280;5655;48.744;9.162;2023-05-10T06:12:50;95756.53;;;14.66;100.00
11198;BME280;5655;48.744;9.162;2023-05-10T06:15:15;95756.41;;;14.77;100.00
11198;BME280;5655;48.744;9.162;2023-05-10T06:17:41;95766.41;;;14.76;100.00
11198;BME280;5655;48.744;9.162;2023-05-10T06:20:08;95767.31;;;14.66;100.00
11198;BME280;5655;48.744;9.162;2023-05-10T06:22:34;95767.09;;;14.84;100.00
11198;BME280;5655;48.744;9.162;2023-05-10T06:24:59;95765.78;;;14.65;100.00
11198;BME280;5655;48.744;9.162;2023-05-10T06:27:24;95761.56;;;14.64;100.00
11198;BME280;5655;48.744;9.162;2023-05-10T06:29:50;95766.00;;;14.47;100.00
11198;BME280;5655;48.744;9.162;2023-05-10T06:32:15;95775.22;;;14.46;100.00
11198;BME280;5655;48.744;9.162;2023-05-10T06:34:40;95778.03;;;14.36;100.00
11198;BME280;5655;48.744;9.162;2023-05-10T06:37:06;95777.22;;;14.39;100.00
11198;BME280;5655;48.744;9.162;2023-05-10T06:39:31;95772.91;;;14.48;100.00
11198;BME280;5655;48.744;9.162;2023-05-10T06:41:56;95784.41;;;14.52;100.00
11198;BME280;5655;48.744;9.162;2023-05-10T06:44:22;95790.63;;;14.46;100.00
11198;BME280;5655;48.744;9.162;2023-05-10T06:46:47;95783.59;;;14.56;100.00
11198;BME280;5655;48.744;9.162;2023-05-10T06:49:12;95799.34;;;14.16;100.00
11198;BME280;5655;48.744;9.162;2023-05-10T06:51:37;95802.28;;;14.32;100.00
11198;BME280;5655;48.744;9.162;2023-05-10T06:54:03;95812.03;;;14.16;100.00
11198;BME280;5655;48.744;9.162;2023-05-10T06:56:28;95806.91;;;14.32;100.00
11198;BME280;5655;48.744;9.162;2023-05-10T06:58:53;95804.50;;;14.44;100.00
11198;BME280;5655;48.744;9.162;2023-05-10T07:01:19;95807.25;;;14.37;100.00
11198;BME280;5655;48.744;9.162;2023-05-10T07:03:44;95806.47;;;14.37;100.00
11198;BME280;5655;48.744;9.162;2023-05-10T07:06:09;95804.50;;;14.44;100.00
11198;BME280;5655;48.744;9.162;2023-05-10T07:08:35;95794.59;;;14.68;100.00
11198;BME280;5655;48.744;9.162;2023-05-10T07:11:05;95779.09;;;14.79;100.00
11198;BME280;5655;48.744;9.162;2023-05-10T07:13:32;95777.13;;;14.80;100.00
11198;BME280;5655;48.744;9.162;2023-05-10T07:15:59;95784.34;;;14.56;100.00
11198;BME280;5655;48.744;9.162;2023-05-10T07:18:25;95789.59;;;14.70;100.00
11198;BME280;5655;48.744;9.162;2023-05-10T07:20:50;95790.59;;;14.83;100.00
11198;BME280;5655;48.744;9.162;2023-05-10T07:23:16;95788.41;;;15.02;100.00
11198;BME280;5655;48.744;9.162;2023-05-10T07:25:45;95789.22;;;14.98;100.00
11198;BME280;5655;48.744;9.162;2023-05-10T07:28:14;95789.72;;;14.90;100.00
11198;BME280;5655;48.744;9.162;2023-05-10T07:30:40;95790.38;;;14.97;100.00
11198;BME280;5655;48.744;9.162;2023-05-10T07:33:06;95787.47;;;15.15;100.00
11198;BME280;5655;48.744;9.162;2023-05-10T07:35:32;95774.59;;;14.99;100.00
11198;BME280;5655;48.744;9.162;2023-05-10T07:37:57;95779.59;;;15.01;100.00
11198;BME280;5655;48.744;9.162;2023-05-10T07:40:23;95768.97;;;15.17;100.00
11198;BME280;5655;48.744;9.162;2023-05-10T07:42:48;95774.53;;;15.03;100.00
11198;BME280;5655;48.744;9.162;2023-05-10T07:45:13;95766.94;;;15.25;100.00
11198;BME280;5655;48.744;9.162;2023-05-10T07:47:39;95769.88;;;15.34;100.00
11198;BME280;5655;48.744;9.162;2023-05-10T07:50:04;95762.03;;;15.16;100.00
11198;BME280;5655;48.744;9.162;2023-05-10T07:52:30;95767.78;;;15.45;100.00
11198;BME280;5655;48.744;9.162;2023-05-10T07:54:55;95770.47;;;15.45;100.00
11198;BME280;5655;48.744;9.162;2023-05-10T07:57:21;95758.38;;;15.30;100.00
11198;BME280;5655;48.744;9.162;2023-05-10T07:59:47;95757.09;;;15.38;100.00
11198;BME280;5655;48.744;9.162;2023-05-10T08:02:12;95754.34;;;15.15;100.00
11198;BME280;5655;48.744;9.162;2023-05-10T08:04:37;95746.69;;;15.13;100.00
11198;BME280;5655;48.744;9.162;2023-05-10T08:07:03;95759.03;;;15.11;100.00
11198;BME280;5655;48.744;9.162;2023-05-10T08:09:28;95757.34;;;15.20;100.00
11198;BME280;5655;48.744;9.162;2023-05-10T08:11:53;95755.81;;;15.23;100.00
11198;BME280;5655;48.744;9.162;2023-05-10T08:14:19;95749.06;;;15.08;100.00
11198;BME280;5655;48.744;9.162;2023-05-10T08:16:44;95748.97;;;15.15;100.00
11198;BME280;5655;48.744;9.162;2023-05-10T08:19:10;95752.63;;;15.28;100.00
11198;BME280;5655;48.744;9.162;2023-05-10T08:21:35;95756.41;;;15.34;100.00
11198;BME280;5655;48.744;9.162;2023-05-10T08:24:01;95757.69;;;15.49;100.00
11198;BME280;5655;48.744;9.162;2023-05-10T08:26:27;95760.88;;;15.44;100.00
11198;BME280;5655;48.744;9.162;2023-05-10T08:28:52;95757.00;;;15.45;100.00
11198;BME280;5655;48.744;9.162;2023-05-10T08:31:18;95760.16;;;15.40;100.00
11198;BME280;5655;48.744;9.162;2023-05-10T08:33:43;95762.28;;;15.25;100.00
11198;BME280;5655;48.744;9.162;2023-05-10T08:36:09;95758.13;;;15.48;100.00
11198;BME280;5655;48.744;9.162;2023-05-10T08:38:34;95763.56;;;15.44;100.00
11198;BME280;5655;48.744;9.162;2023-05-10T08:41:01;95761.28;;;15.69;100.00
11198;BME280;5655;48.744;9.162;2023-05-10T08:43:28;95754.75;;;15.67;100.00
11198;BME280;5655;48.744;9.162;2023-05-10T08:45:54;95759.34;;;15.70;100.00
11198;BME280;5655;48.744;9.162;2023-05-10T08:48:23;95764.22;;;15.78;100.00
11198;BME280;5655;48.744;9.162;2023-05-10T08:50:49;95767.72;;;15.99;100.00
11198;BME280;5655;48.744;9.162;2023-05-10T08:53:18;95764.16;;;15.82;100.00
11198;BME280;5655;48.744;9.162;2023-05-10T08:55:44;95771.38;;;15.65;100.00
11198;BME280;5655;48.744;9.162;2023-05-10T08:58:10;95770.44;;;15.99;100.00
11198;BME280;5655;48.744;9.162;2023-05-10T09:00:35;95768.78;;;15.81;100.00
11198;BME280;5655;48.744;9.162;2023-05-10T09:03:02;95766.31;;;15.91;100.00
11198;BME280;5655;48.744;9.162;2023-05-10T09:05:28;95769.25;;;16.00;100.00
11198;BME280;5655;48.744;9.162;2023-05-10T09:07:54;95777.59;;;15.85;100.00
11198;BME280;5655;48.744;9.162;2023-05-10T09:10:20;95773.59;;;16.17;100.00
11198;BME280;5655;48.744;9.162;2023-05-10T09:12:46;95781.69;;;16.17;100.00
11198;BME280;5655;48.744;9.162;2023-05-10T09:15:15;95782.47;;;15.94;100.00
11198;BME280;5655;48.744;9.162;2023-05-10T09:17:40;95779.63;;;15.78;100.00
11198;BME280;5655;48.744;9.162;2023-05-10T09:20:07;95791.78;;;15.89;100.00
11198;BME280;5655;48.744;9.162;2023-05-10T09:22:35;95788.41;;;15.59;100.00
11198;BME280;5655;48.744;9.162;2023-05-10T09:25:08;95786.72;;;15.68;100.00
11198;BME280;5655;48.744;9.162;2023-05-10T09:27:35;95794.69;;;15.52;100.00
11198;BME280;5655;48.744;9.162;2023-05-10T09:30:01;95792.72;;;15.26;100.00
11198;BME280;5655;48.744;9.162;2023-05-10T09:35:11;95796.47;;;15.32;100.00
11198;BME280;5655;48.744;9.162;2023-05-10T09:37:39;95795.44;;;15.49;100.00
11198;BME280;5655;48.744;9.162;2023-05-10T09:40:07;95784.41;;;15.70;100.00
11198;BME280;5655;48.744;9.162;2023-05-10T09:42:33;95786.16;;;15.54;100.00
11198;BME280;5655;48.744;9.162;2023-05-10T09:45:05;95793.13;;;15.78;100.00
11198;BME280;5655;48.744;9.162;2023-05-10T09:47:32;95792.50;;;15.94;100.00
11198;BME280;5655;48.744;9.162;2023-05-10T09:49:58;95804.44;;;15.93;100.00
11198;BME280;5655;48.744;9.162;2023-05-10T09:52:46;95809.31;;;16.01;100.00
11198;BME280;5655;48.744;9.162;2023-05-10T09:55:11;95808.78;;;16.33;100.00
11198;BME280;5655;48.744;9.162;2023-05-10T09:57:37;95808.00;;;16.32;100.00
11198;BME280;5655;48.744;9.162;2023-05-10T10:00:03;95801.03;;;16.35;100.00
11198;BME280;5655;48.744;9.162;2023-05-10T10:02:31;95809.16;;;16.35;100.00
11198;BME280;5655;48.744;9.162;2023-05-10T10:04:56;95810.81;;;16.49;100.00
11198;BME280;5655;48.744;9.162;2023-05-10T10:07:23;95804.88;;;16.57;100.00
11198;BME280;5655;48.744;9.162;2023-05-10T10:09:49;95809.28;;;16.91;100.00
11198;BME280;5655;48.744;9.162;2023-05-10T10:12:15;95810.59;;;16.83;100.00
11198;BME280;5655;48.744;9.162;2023-05-10T10:14:41;95813.81;;;16.74;100.00
11198;BME280;5655;48.744;9.162;2023-05-10T10:17:07;95814.66;;;17.10;100.00
11198;BME280;5655;48.744;9.162;2023-05-10T10:19:33;95809.28;;;16.91;100.00
11198;BME280;5655;48.744;9.162;2023-05-10T10:22:00;95810.25;;;16.81;100.00
11198;BME280;5655;48.744;9.162;2023-05-10T10:24:25;95812.25;;;16.76;100.00
11198;BME280;5655;48.744;9.162;2023-05-10T10:26:52;95799.13;;;16.55;100.00
11198;BME280;5655;48.744;9.162;2023-05-10T10:29:35;95800.34;;;16.51;100.00
11198;BME280;5655;48.744;9.162;2023-05-10T10:32:26;95796.22;;;16.66;100.00
11198;BME280;5655;48.744;9.162;2023-05-10T10:34:54;95804.00;;;16.84;100.00
11198;BME280;5655;48.744;9.162;2023-05-10T10:37:21;95803.44;;;16.92;100.00
11198;BME280;5655;48.744;9.162;2023-05-10T10:39:48;95800.53;;;17.03;100.00
11198;BME280;5655;48.744;9.162;2023-05-10T10:42:43;95815.69;;;17.16;100.00
11198;BME280;5655;48.744;9.162;2023-05-10T10:45:13;95806.78;;;17.36;100.00
11198;BME280;5655;48.744;9.162;2023-05-10T10:47:38;95810.34;;;17.13;100.00
11198;BME280;5655;48.744;9.162;2023-05-10T10:52:35;95808.31;;;17.37;100.00
11198;BME280;5655;48.744;9.162;2023-05-10T10:57:57;95810.66;;;16.59;100.00
11198;BME280;5655;48.744;9.162;2023-05-10T11:00:30;95802.69;;;16.29;100.00
11198;BME280;5655;48.744;9.162;2023-05-10T11:07:55;95822.06;;;15.51;100.00
11198;BME280;5655;48.744;9.162;2023-05-10T11:10:21;95829.84;;;15.41;100.00
11198;BME280;5655;48.744;9.162;2023-05-10T11:13:04;95824.16;;;15.36;100.00
11198;BME280;5655;48.744;9.162;2023-05-10T11:15:38;95821.63;;;15.25;100.00
11198;BME280;5655;48.744;9.162;2023-05-10T11:18:20;95824.19;;;15.32;100.00
11198;BME280;5655;48.744;9.162;2023-05-10T11:20:52;95823.34;;;15.69;100.00
11198;BME280;5655;48.744;9.162;2023-05-10T11:23:18;95828.47;;;15.87;100.00
11198;BME280;5655;48.744;9.162;2023-05-10T11:25:45;95832.84;;;15.77;100.00
11198;BME280;5655;48.744;9.162;2023-05-10T11:28:11;95830.28;;;15.94;100.00
11198;BME280;5655;48.744;9.162;2023-05-10T11:30:41;95828.97;;;15.78;100.00
11198;BME280;5655;48.744;9.162;2023-05-10T11:33:08;95835.59;;;15.97;100.00
11198;BME280;5655;48.744;9.162;2023-05-10T11:35:38;95837.31;;;15.87;100.00
11198;BME280;5655;48.744;9.162;2023-05-10T11:38:08;95833.38;;;15.92;100.00
11198;BME280;5655;48.744;9.162;2023-05-10T11:40:34;95835.09;;;15.82;100.00
11198;BME280;5655;48.744;9.162;2023-05-10T11:42:59;95845.06;;;15.85;100.00
11198;BME280;5655;48.744;9.162;2023-05-10T11:45:25;95840.94;;;16.01;100.00
11198;BME280;5655;48.744;9.162;2023-05-10T11:47:51;95833.44;;;15.88;100.00
11198;BME280;5655;48.744;9.162;2023-05-10T11:50:17;95840.56;;;15.75;100.00
11198;BME280;5655;48.744;9.162;2023-05-10T11:52:42;95839.56;;;15.66;100.00
11198;BME280;5655;48.744;9.162;2023-05-10T11:55:08;95851.16;;;15.63;100.00
11198;BME280;5655;48.744;9.162;2023-05-10T11:57:35;95856.34;;;15.50;100.00
11198;BME280;5655;48.744;9.162;2023-05-10T12:00:00;95854.38;;;15.81;100.00
11198;BME280;5655;48.744;9.162;2023-05-10T12:02:28;95856.81;;;15.72;100.00
11198;BME280;5655;48.744;9.162;2023-05-10T12:04:55;95857.84;;;15.81;100.00
11198;BME280;5655;48.744;9.162;2023-05-10T12:07:20;95856.22;;;15.87;100.00
11198;BME280;5655;48.744;9.162;2023-05-10T12:10:06;95864.59;;;15.66;100.00
11198;BME280;5655;48.744;9.162;2023-05-10T12:12:38;95861.53;;;16.18;100.00
11198;BME280;5655;48.744;9.162;2023-05-10T12:15:05;95865.44;;;16.37;100.00
11198;BME280;5655;48.744;9.162;2023-05-10T12:17:31;95876.13;;;16.20;100.00
11198;BME280;5655;48.744;9.162;2023-05-10T12:20:16;95864.44;;;16.27;100.00
11198;BME280;5655;48.744;9.162;2023-05-10T12:22:56;95883.34;;;16.50;100.00
11198;BME280;5655;48.744;9.162;2023-05-10T12:25:23;95873.81;;;16.65;100.00
11198;BME280;5655;48.744;9.162;2023-05-10T12:27:54;95878.78;;;16.47;100.00
11198;BME280;5655;48.744;9.162;2023-05-10T12:30:25;95872.97;;;16.25;100.00
11198;BME280;5655;48.744;9.162;2023-05-10T12:32:51;95879.53;;;16.48;100.00
11198;BME280;5655;48.744;9.162;2023-05-10T12:35:17;95877.00;;;16.37;100.00
11198;BME280;5655;48.744;9.162;2023-05-10T12:37:45;95878.25;;;16.32;100.00
11198;BME280;5655;48.744;9.162;2023-05-10T12:40:11;95872.78;;;16.36;100.00
11198;BME280;5655;48.744;9.162;2023-05-10T12:42:38;95874.25;;;16.41;100.00
11198;BME280;5655;48.744;9.162;2023-05-10T12:45:04;95883.59;;;16.59;100.00
11198;BME280;5655;48.744;9.162;2023-05-10T12:47:31;95875.59;;;16.52;100.00
11198;BME280;5655;48.744;9.162;2023-05-10T12:49:57;95873.72;;;16.49;100.00
11198;BME280;5655;48.744;9.162;2023-05-10T12:52:22;95883.25;;;16.34;100.00
11198;BME280;5655;48.744;9.162;2023-05-10T12:54:48;95889.94;;;16.26;100.00
11198;BME280;5655;48.744;9.162;2023-05-10T12:57:14;95887.00;;;16.17;100.00
11198;BME280;5655;48.744;9.162;2023-05-10T12:59:39;95886.75;;;16.08;100.00
11198;BME280;5655;48.744;9.162;2023-05-10T13:02:05;95881.69;;;16.10;100.00
11198;BME280;5655;48.744;9.162;2023-05-10T13:04:31;95884.63;;;16.19;100.00
11198;BME280;5655;48.744;9.162;2023-05-10T13:06:56;95882.06;;;16.35;100.00
11198;BME280;5655;48.744;9.162;2023-05-10T13:09:24;95878.06;;;16.43;100.00
11198;BME280;5655;48.744;9.162;2023-05-10T13:11:50;95881.00;;;16.52;100.00
11198;BME280;5655;48.744;9.162;2023-05-10T13:14:15;95875.09;;;16.81;100.00
11198;BME280;5655;48.744;9.162;2023-05-10T13:16:41;95874.34;;;16.80;100.00
11198;BME280;5655;48.744;9.162;2023-05-10T13:19:06;95871.16;;;16.85;100.00
11198;BME280;5655;48.744;9.162;2023-05-10T13:21:32;95879.19;;;16.89;100.00
11198;BME280;5655;48.744;9.162;2023-05-10T13:23:57;95880.94;;;16.99;100.00
11198;BME280;5655;48.744;9.162;2023-05-10T13:26:23;95874.84;;;16.95;100.00
11198;BME280;5655;48.744;9.162;2023-05-10T13:28:48;95877.88;;;17.36;100.00
11198;BME280;5655;48.744;9.162;2023-05-10T13:31:14;95873.31;;;17.13;100.00